Terminal Aerodrome Forecast
Issued by NWS Wilmington, NC

Home | Current Version | Previous Version | Text Only | Print | Product List | Glossary On
Versions: 1 2 3 4 5 6 7 8 9 10 11 12 13
000
FTUS42 KILM 231133
TAFFLO
TAF
KFLO 231133Z 2312/2412 25005KT P6SM FEW040 FEW250
     FM231800 23008KT P6SM VCTS SCT040CB SCT250
     FM240200 20005KT P6SM FEW050 FEW250=

USA.gov is the U.S. government's official web portal to all federal, state and local government web resources and services.